sensor_id;sensor_type;location;lat;lon;timestamp;P1;durP1;ratioP1;P2;durP2;ratioP2
74158;SDS011;62511;47.970;11.774;2024-03-02T00:00:11;7.15;;;4.03;;
74158;SDS011;62511;47.970;11.774;2024-03-02T00:05:07;7.10;;;3.97;;
74158;SDS011;62511;47.970;11.774;2024-03-02T00:07:33;10.13;;;4.90;;
74158;SDS011;62511;47.970;11.774;2024-03-02T00:10:00;6.65;;;3.92;;
74158;SDS011;62511;47.970;11.774;2024-03-02T00:12:26;8.57;;;4.57;;
74158;SDS011;62511;47.970;11.774;2024-03-02T00:14:52;8.30;;;4.50;;
74158;SDS011;62511;47.970;11.774;2024-03-02T00:17:21;9.48;;;4.63;;
74158;SDS011;62511;47.970;11.774;2024-03-02T00:19:48;10.25;;;5.28;;
74158;SDS011;62511;47.970;11.774;2024-03-02T00:22:14;9.82;;;4.85;;
74158;SDS011;62511;47.970;11.774;2024-03-02T00:24:41;8.27;;;4.53;;
74158;SDS011;62511;47.970;11.774;2024-03-02T00:27:08;8.77;;;4.63;;
74158;SDS011;62511;47.970;11.774;2024-03-02T00:29:39;10.07;;;4.72;;
74158;SDS011;62511;47.970;11.774;2024-03-02T00:32:15;9.13;;;4.32;;
74158;SDS011;62511;47.970;11.774;2024-03-02T00:34:42;8.13;;;4.72;;
74158;SDS011;62511;47.970;11.774;2024-03-02T00:37:08;8.70;;;4.10;;
74158;SDS011;62511;47.970;11.774;2024-03-02T00:39:36;8.30;;;5.05;;
74158;SDS011;62511;47.970;11.774;2024-03-02T00:42:03;7.60;;;4.68;;
74158;SDS011;62511;47.970;11.774;2024-03-02T00:44:29;6.85;;;4.05;;
74158;SDS011;62511;47.970;11.774;2024-03-02T00:46:59;10.02;;;4.72;;
74158;SDS011;62511;47.970;11.774;2024-03-02T00:49:25;9.25;;;5.60;;
74158;SDS011;62511;47.970;11.774;2024-03-02T00:51:54;7.60;;;4.43;;
74158;SDS011;62511;47.970;11.774;2024-03-02T00:54:23;8.32;;;4.15;;
74158;SDS011;62511;47.970;11.774;2024-03-02T00:56:51;10.70;;;5.32;;
74158;SDS011;62511;47.970;11.774;2024-03-02T00:59:17;12.35;;;4.65;;
74158;SDS011;62511;47.970;11.774;2024-03-02T01:01:43;9.93;;;5.00;;
74158;SDS011;62511;47.970;11.774;2024-03-02T01:04:09;10.52;;;5.00;;
74158;SDS011;62511;47.970;11.774;2024-03-02T01:06:35;8.50;;;4.93;;
74158;SDS011;62511;47.970;11.774;2024-03-02T01:09:03;12.27;;;6.32;;
74158;SDS011;62511;47.970;11.774;2024-03-02T01:11:29;13.00;;;5.65;;
74158;SDS011;62511;47.970;11.774;2024-03-02T01:13:56;12.48;;;5.68;;
74158;SDS011;62511;47.970;11.774;2024-03-02T01:16:23;10.00;;;4.70;;
74158;SDS011;62511;47.970;11.774;2024-03-02T01:18:49;11.88;;;6.53;;
74158;SDS011;62511;47.970;11.774;2024-03-02T01:21:15;10.15;;;5.30;;
74158;SDS011;62511;47.970;11.774;2024-03-02T01:23:41;11.07;;;5.70;;
74158;SDS011;62511;47.970;11.774;2024-03-02T01:26:08;12.60;;;6.00;;
74158;SDS011;62511;47.970;11.774;2024-03-02T01:28:34;8.95;;;5.05;;
74158;SDS011;62511;47.970;11.774;2024-03-02T01:31:01;14.93;;;6.25;;
74158;SDS011;62511;47.970;11.774;2024-03-02T01:33:27;11.77;;;6.82;;
74158;SDS011;62511;47.970;11.774;2024-03-02T01:35:53;10.20;;;5.72;;
74158;SDS011;62511;47.970;11.774;2024-03-02T01:38:19;12.02;;;5.72;;
74158;SDS011;62511;47.970;11.774;2024-03-02T01:40:46;14.23;;;7.22;;
74158;SDS011;62511;47.970;11.774;2024-03-02T01:43:13;11.00;;;6.47;;
74158;SDS011;62511;47.970;11.774;2024-03-02T01:45:39;13.80;;;6.18;;
74158;SDS011;62511;47.970;11.774;2024-03-02T01:48:06;18.85;;;7.85;;
74158;SDS011;62511;47.970;11.774;2024-03-02T01:50:32;14.73;;;7.28;;
74158;SDS011;62511;47.970;11.774;2024-03-02T01:52:59;14.90;;;8.15;;
74158;SDS011;62511;47.970;11.774;2024-03-02T01:55:25;13.18;;;6.85;;
74158;SDS011;62511;47.970;11.774;2024-03-02T01:57:54;15.38;;;6.85;;
74158;SDS011;62511;47.970;11.774;2024-03-02T02:00:21;16.90;;;8.10;;
74158;SDS011;62511;47.970;11.774;2024-03-02T02:02:47;16.65;;;8.07;;
74158;SDS011;62511;47.970;11.774;2024-03-02T02:05:14;17.25;;;7.82;;
74158;SDS011;62511;47.970;11.774;2024-03-02T02:07:41;17.13;;;7.53;;
74158;SDS011;62511;47.970;11.774;2024-03-02T02:10:08;14.02;;;8.35;;
74158;SDS011;62511;47.970;11.774;2024-03-02T02:12:34;13.85;;;8.60;;
74158;SDS011;62511;47.970;11.774;2024-03-02T02:15:01;17.88;;;9.23;;
74158;SDS011;62511;47.970;11.774;2024-03-02T02:17:28;17.38;;;8.18;;
74158;SDS011;62511;47.970;11.774;2024-03-02T02:19:54;16.02;;;7.75;;
74158;SDS011;62511;47.970;11.774;2024-03-02T02:22:20;14.02;;;7.47;;
74158;SDS011;62511;47.970;11.774;2024-03-02T02:24:47;13.57;;;6.70;;
74158;SDS011;62511;47.970;11.774;2024-03-02T02:27:13;17.27;;;8.20;;
74158;SDS011;62511;47.970;11.774;2024-03-02T02:29:40;21.50;;;9.10;;
74158;SDS011;62511;47.970;11.774;2024-03-02T02:32:08;16.60;;;8.25;;
74158;SDS011;62511;47.970;11.774;2024-03-02T02:34:34;16.15;;;8.13;;
74158;SDS011;62511;47.970;11.774;2024-03-02T02:37:01;15.75;;;7.95;;
74158;SDS011;62511;47.970;11.774;2024-03-02T02:39:27;19.02;;;9.18;;
74158;SDS011;62511;47.970;11.774;2024-03-02T02:41:53;18.20;;;8.60;;
74158;SDS011;62511;47.970;11.774;2024-03-02T02:44:19;22.17;;;8.18;;
74158;SDS011;62511;47.970;11.774;2024-03-02T02:46:45;16.15;;;8.05;;
74158;SDS011;62511;47.970;11.774;2024-03-02T02:49:11;15.63;;;8.20;;
74158;SDS011;62511;47.970;11.774;2024-03-02T02:51:38;15.30;;;7.60;;
74158;SDS011;62511;47.970;11.774;2024-03-02T02:54:04;14.80;;;8.07;;
74158;SDS011;62511;47.970;11.774;2024-03-02T02:56:30;19.85;;;8.48;;
74158;SDS011;62511;47.970;11.774;2024-03-02T02:58:57;15.15;;;7.82;;
74158;SDS011;62511;47.970;11.774;2024-03-02T03:01:23;14.93;;;7.68;;
74158;SDS011;62511;47.970;11.774;2024-03-02T03:03:50;14.40;;;6.30;;
74158;SDS011;62511;47.970;11.774;2024-03-02T03:06:18;15.05;;;7.43;;
74158;SDS011;62511;47.970;11.774;2024-03-02T03:08:44;15.30;;;7.35;;
74158;SDS011;62511;47.970;11.774;2024-03-02T03:11:10;10.98;;;6.30;;
74158;SDS011;62511;47.970;11.774;2024-03-02T03:13:37;11.45;;;6.43;;
74158;SDS011;62511;47.970;11.774;2024-03-02T03:16:03;10.10;;;5.15;;
74158;SDS011;62511;47.970;11.774;2024-03-02T03:18:29;11.63;;;5.68;;
74158;SDS011;62511;47.970;11.774;2024-03-02T03:20:56;11.90;;;5.78;;
74158;SDS011;62511;47.970;11.774;2024-03-02T03:23:22;9.00;;;5.57;;
74158;SDS011;62511;47.970;11.774;2024-03-02T03:25:48;11.45;;;6.10;;
74158;SDS011;62511;47.970;11.774;2024-03-02T03:28:14;13.77;;;6.07;;
74158;SDS011;62511;47.970;11.774;2024-03-02T03:30:41;10.75;;;6.30;;
74158;SDS011;62511;47.970;11.774;2024-03-02T03:33:07;11.10;;;6.15;;
74158;SDS011;62511;47.970;11.774;2024-03-02T03:35:33;11.85;;;6.55;;
74158;SDS011;62511;47.970;11.774;2024-03-02T03:38:00;11.48;;;6.15;;
74158;SDS011;62511;47.970;11.774;2024-03-02T03:40:26;10.63;;;5.72;;
74158;SDS011;62511;47.970;11.774;2024-03-02T03:42:52;13.30;;;6.32;;
74158;SDS011;62511;47.970;11.774;2024-03-02T03:45:20;14.38;;;6.75;;
74158;SDS011;62511;47.970;11.774;2024-03-02T03:47:46;12.55;;;6.18;;
74158;SDS011;62511;47.970;11.774;2024-03-02T03:50:13;10.35;;;5.43;;
74158;SDS011;62511;47.970;11.774;2024-03-02T03:52:39;11.32;;;6.35;;
74158;SDS011;62511;47.970;11.774;2024-03-02T03:55:05;10.63;;;5.65;;
74158;SDS011;62511;47.970;11.774;2024-03-02T03:57:31;9.35;;;4.97;;
74158;SDS011;62511;47.970;11.774;2024-03-02T03:59:57;11.70;;;5.93;;
74158;SDS011;62511;47.970;11.774;2024-03-02T04:02:23;12.10;;;6.20;;
74158;SDS011;62511;47.970;11.774;2024-03-02T04:04:50;12.02;;;6.18;;
74158;SDS011;62511;47.970;11.774;2024-03-02T04:07:16;12.25;;;5.65;;
74158;SDS011;62511;47.970;11.774;2024-03-02T04:09:42;12.73;;;5.88;;
74158;SDS011;62511;47.970;11.774;2024-03-02T04:12:09;11.80;;;5.55;;
74158;SDS011;62511;47.970;11.774;2024-03-02T04:14:35;11.13;;;6.32;;
74158;SDS011;62511;47.970;11.774;2024-03-02T04:17:02;13.57;;;6.25;;
74158;SDS011;62511;47.970;11.774;2024-03-02T04:19:28;12.98;;;6.70;;
74158;SDS011;62511;47.970;11.774;2024-03-02T04:21:54;12.77;;;6.07;;
74158;SDS011;62511;47.970;11.774;2024-03-02T04:24:21;15.88;;;6.43;;
74158;SDS011;62511;47.970;11.774;2024-03-02T04:26:47;14.80;;;6.85;;
74158;SDS011;62511;47.970;11.774;2024-03-02T04:29:14;13.23;;;6.35;;
74158;SDS011;62511;47.970;11.774;2024-03-02T04:31:40;11.85;;;6.10;;
74158;SDS011;62511;47.970;11.774;2024-03-02T04:34:06;10.65;;;6.10;;
74158;SDS011;62511;47.970;11.774;2024-03-02T04:36:33;13.35;;;6.57;;
74158;SDS011;62511;47.970;11.774;2024-03-02T04:38:59;13.23;;;6.85;;
74158;SDS011;62511;47.970;11.774;2024-03-02T04:41:26;13.40;;;6.97;;
74158;SDS011;62511;47.970;11.774;2024-03-02T04:43:53;13.10;;;6.78;;
74158;SDS011;62511;47.970;11.774;2024-03-02T04:46:19;11.77;;;6.45;;
74158;SDS011;62511;47.970;11.774;2024-03-02T04:48:45;12.82;;;5.82;;
74158;SDS011;62511;47.970;11.774;2024-03-02T04:51:12;11.70;;;6.53;;
74158;SDS011;62511;47.970;11.774;2024-03-02T04:53:38;11.23;;;6.45;;
74158;SDS011;62511;47.970;11.774;2024-03-02T04:56:05;14.32;;;6.00;;
74158;SDS011;62511;47.970;11.774;2024-03-02T04:58:49;14.43;;;6.53;;
74158;SDS011;62511;47.970;11.774;2024-03-02T05:01:15;13.10;;;6.47;;
74158;SDS011;62511;47.970;11.774;2024-03-02T05:03:42;15.02;;;7.20;;
74158;SDS011;62511;47.970;11.774;2024-03-02T05:06:09;12.23;;;5.95;;
74158;SDS011;62511;47.970;11.774;2024-03-02T05:08:35;12.38;;;5.93;;
74158;SDS011;62511;47.970;11.774;2024-03-02T05:11:01;12.52;;;6.88;;
74158;SDS011;62511;47.970;11.774;2024-03-02T05:13:47;12.35;;;5.63;;
74158;SDS011;62511;47.970;11.774;2024-03-02T05:16:13;12.10;;;5.85;;
74158;SDS011;62511;47.970;11.774;2024-03-02T05:18:39;12.95;;;6.68;;
74158;SDS011;62511;47.970;11.774;2024-03-02T05:21:06;12.50;;;5.90;;
74158;SDS011;62511;47.970;11.774;2024-03-02T05:23:32;12.57;;;6.05;;
74158;SDS011;62511;47.970;11.774;2024-03-02T05:25:58;13.68;;;7.30;;
74158;SDS011;62511;47.970;11.774;2024-03-02T05:28:25;11.68;;;6.15;;
74158;SDS011;62511;47.970;11.774;2024-03-02T05:30:51;16.67;;;6.38;;
74158;SDS011;62511;47.970;11.774;2024-03-02T05:33:17;16.23;;;7.88;;
74158;SDS011;62511;47.970;11.774;2024-03-02T05:35:44;13.13;;;6.70;;
74158;SDS011;62511;47.970;11.774;2024-03-02T05:38:10;12.43;;;5.85;;
74158;SDS011;62511;47.970;11.774;2024-03-02T05:40:36;16.40;;;7.47;;
74158;SDS011;62511;47.970;11.774;2024-03-02T05:43:02;15.85;;;7.68;;
74158;SDS011;62511;47.970;11.774;2024-03-02T05:45:28;19.45;;;7.13;;
74158;SDS011;62511;47.970;11.774;2024-03-02T05:47:54;13.63;;;7.70;;
74158;SDS011;62511;47.970;11.774;2024-03-02T05:50:21;17.45;;;7.45;;
74158;SDS011;62511;47.970;11.774;2024-03-02T05:52:47;15.10;;;8.07;;
74158;SDS011;62511;47.970;11.774;2024-03-02T05:55:13;17.10;;;8.35;;
74158;SDS011;62511;47.970;11.774;2024-03-02T05:57:40;14.30;;;7.43;;
74158;SDS011;62511;47.970;11.774;2024-03-02T06:00:09;14.73;;;8.05;;
74158;SDS011;62511;47.970;11.774;2024-03-02T06:02:39;14.75;;;7.78;;
74158;SDS011;62511;47.970;11.774;2024-03-02T06:05:05;14.30;;;7.68;;
74158;SDS011;62511;47.970;11.774;2024-03-02T06:07:35;17.27;;;8.68;;
74158;SDS011;62511;47.970;11.774;2024-03-02T06:10:01;17.55;;;7.97;;
74158;SDS011;62511;47.970;11.774;2024-03-02T06:12:27;15.68;;;8.40;;
74158;SDS011;62511;47.970;11.774;2024-03-02T06:14:53;15.50;;;7.25;;
74158;SDS011;62511;47.970;11.774;2024-03-02T06:17:19;16.48;;;8.13;;
74158;SDS011;62511;47.970;11.774;2024-03-02T06:19:46;17.02;;;8.32;;
74158;SDS011;62511;47.970;11.774;2024-03-02T06:22:13;19.55;;;8.20;;
74158;SDS011;62511;47.970;11.774;2024-03-02T06:24:39;21.48;;;9.32;;
74158;SDS011;62511;47.970;11.774;2024-03-02T06:27:05;18.52;;;9.52;;
74158;SDS011;62511;47.970;11.774;2024-03-02T06:29:34;20.60;;;10.15;;
74158;SDS011;62511;47.970;11.774;2024-03-02T06:32:01;23.48;;;11.27;;
74158;SDS011;62511;47.970;11.774;2024-03-02T06:34:27;22.70;;;10.70;;
74158;SDS011;62511;47.970;11.774;2024-03-02T06:36:53;24.40;;;11.57;;
74158;SDS011;62511;47.970;11.774;2024-03-02T06:39:19;27.20;;;11.68;;
74158;SDS011;62511;47.970;11.774;2024-03-02T06:41:45;22.08;;;10.88;;
74158;SDS011;62511;47.970;11.774;2024-03-02T06:44:14;23.17;;;11.35;;
74158;SDS011;62511;47.970;11.774;2024-03-02T06:46:41;23.52;;;10.60;;
74158;SDS011;62511;47.970;11.774;2024-03-02T06:49:07;19.75;;;11.02;;
74158;SDS011;62511;47.970;11.774;2024-03-02T06:51:35;24.65;;;10.43;;
74158;SDS011;62511;47.970;11.774;2024-03-02T06:54:01;23.25;;;10.68;;
74158;SDS011;62511;47.970;11.774;2024-03-02T06:56:28;24.95;;;11.60;;
74158;SDS011;62511;47.970;11.774;2024-03-02T06:58:54;26.05;;;11.15;;
74158;SDS011;62511;47.970;11.774;2024-03-02T07:01:20;23.75;;;11.48;;
74158;SDS011;62511;47.970;11.774;2024-03-02T07:03:46;20.20;;;9.68;;
74158;SDS011;62511;47.970;11.774;2024-03-02T07:06:13;21.50;;;9.65;;
74158;SDS011;62511;47.970;11.774;2024-03-02T07:08:39;23.15;;;10.30;;
74158;SDS011;62511;47.970;11.774;2024-03-02T07:11:06;26.20;;;11.13;;
74158;SDS011;62511;47.970;11.774;2024-03-02T07:13:32;27.27;;;11.65;;
74158;SDS011;62511;47.970;11.774;2024-03-02T07:15:58;19.85;;;9.48;;
74158;SDS011;62511;47.970;11.774;2024-03-02T07:18:27;21.98;;;10.30;;
74158;SDS011;62511;47.970;11.774;2024-03-02T07:20:53;21.83;;;9.35;;
74158;SDS011;62511;47.970;11.774;2024-03-02T07:23:23;20.70;;;9.98;;
74158;SDS011;62511;47.970;11.774;2024-03-02T07:25:52;19.20;;;9.18;;
74158;SDS011;62511;47.970;11.774;2024-03-02T07:28:22;22.73;;;10.15;;
74158;SDS011;62511;47.970;11.774;2024-03-02T07:31:09;20.23;;;10.18;;
74158;SDS011;62511;47.970;11.774;2024-03-02T07:33:35;23.58;;;10.88;;
74158;SDS011;62511;47.970;11.774;2024-03-02T07:36:01;26.35;;;10.57;;
74158;SDS011;62511;47.970;11.774;2024-03-02T07:38:30;21.52;;;10.32;;
74158;SDS011;62511;47.970;11.774;2024-03-02T07:40:59;16.10;;;7.80;;
74158;SDS011;62511;47.970;11.774;2024-03-02T07:43:25;19.45;;;9.32;;
74158;SDS011;62511;47.970;11.774;2024-03-02T07:45:52;16.08;;;7.75;;
74158;SDS011;62511;47.970;11.774;2024-03-02T07:48:18;13.20;;;7.07;;
74158;SDS011;62511;47.970;11.774;2024-03-02T07:50:44;14.20;;;7.65;;
74158;SDS011;62511;47.970;11.774;2024-03-02T07:53:10;12.35;;;5.70;;
74158;SDS011;62511;47.970;11.774;2024-03-02T07:55:37;10.73;;;5.30;;
74158;SDS011;62511;47.970;11.774;2024-03-02T07:58:03;13.52;;;6.28;;
74158;SDS011;62511;47.970;11.774;2024-03-02T08:00:29;26.27;;;11.25;;
74158;SDS011;62511;47.970;11.774;2024-03-02T08:02:56;19.92;;;9.18;;
74158;SDS011;62511;47.970;11.774;2024-03-02T08:05:22;14.68;;;7.30;;
74158;SDS011;62511;47.970;11.774;2024-03-02T08:07:48;12.95;;;7.43;;
74158;SDS011;62511;47.970;11.774;2024-03-02T08:10:18;14.60;;;6.80;;
74158;SDS011;62511;47.970;11.774;2024-03-02T08:12:44;11.32;;;6.20;;
74158;SDS011;62511;47.970;11.774;2024-03-02T08:15:11;15.35;;;6.88;;
74158;SDS011;62511;47.970;11.774;2024-03-02T08:17:40;14.27;;;6.93;;
74158;SDS011;62511;47.970;11.774;2024-03-02T08:20:11;10.57;;;5.60;;
74158;SDS011;62511;47.970;11.774;2024-03-02T08:22:37;12.73;;;7.18;;
74158;SDS011;62511;47.970;11.774;2024-03-02T08:25:04;13.65;;;6.28;;
74158;SDS011;62511;47.970;11.774;2024-03-02T08:27:30;15.23;;;6.38;;
74158;SDS011;62511;47.970;11.774;2024-03-02T08:29:58;14.18;;;6.28;;
74158;SDS011;62511;47.970;11.774;2024-03-02T08:32:24;12.07;;;5.50;;
74158;SDS011;62511;47.970;11.774;2024-03-02T08:34:50;12.48;;;6.55;;
74158;SDS011;62511;47.970;11.774;2024-03-02T08:37:16;16.15;;;7.25;;
74158;SDS011;62511;47.970;11.774;2024-03-02T08:39:43;12.40;;;5.97;;
74158;SDS011;62511;47.970;11.774;2024-03-02T08:42:10;12.52;;;6.50;;
74158;SDS011;62511;47.970;11.774;2024-03-02T08:44:36;12.77;;;6.47;;
74158;SDS011;62511;47.970;11.774;2024-03-02T08:47:03;11.45;;;6.57;;
74158;SDS011;62511;47.970;11.774;2024-03-02T08:49:30;15.45;;;8.15;;
74158;SDS011;62511;47.970;11.774;2024-03-02T08:51:56;22.05;;;11.02;;
74158;SDS011;62511;47.970;11.774;2024-03-02T08:54:22;21.60;;;9.50;;
74158;SDS011;62511;47.970;11.774;2024-03-02T08:56:51;19.45;;;9.13;;
74158;SDS011;62511;47.970;11.774;2024-03-02T08:59:17;24.58;;;11.05;;
74158;SDS011;62511;47.970;11.774;2024-03-02T09:01:43;28.77;;;12.98;;
74158;SDS011;62511;47.970;11.774;2024-03-02T09:04:10;26.17;;;11.55;;
74158;SDS011;62511;47.970;11.774;2024-03-02T09:06:37;22.13;;;10.30;;
74158;SDS011;62511;47.970;11.774;2024-03-02T09:09:03;17.17;;;8.02;;
74158;SDS011;62511;47.970;11.774;2024-03-02T09:11:29;19.45;;;8.73;;
74158;SDS011;62511;47.970;11.774;2024-03-02T09:13:55;22.58;;;8.20;;
74158;SDS011;62511;47.970;11.774;2024-03-02T09:16:22;16.52;;;7.80;;
74158;SDS011;62511;47.970;11.774;2024-03-02T09:18:49;15.05;;;7.07;;
74158;SDS011;62511;47.970;11.774;2024-03-02T09:21:15;18.15;;;7.88;;
74158;SDS011;62511;47.970;11.774;2024-03-02T09:23:42;16.50;;;6.35;;
74158;SDS011;62511;47.970;11.774;2024-03-02T09:26:10;13.40;;;6.18;;
74158;SDS011;62511;47.970;11.774;2024-03-02T09:28:36;14.55;;;5.85;;
74158;SDS011;62511;47.970;11.774;2024-03-02T09:31:02;7.75;;;4.80;;
74158;SDS011;62511;47.970;11.774;2024-03-02T09:33:28;11.18;;;4.13;;
74158;SDS011;62511;47.970;11.774;2024-03-02T09:35:55;11.73;;;5.53;;
74158;SDS011;62511;47.970;11.774;2024-03-02T09:38:21;11.10;;;4.68;;
74158;SDS011;62511;47.970;11.774;2024-03-02T09:40:47;11.32;;;5.47;;
74158;SDS011;62511;47.970;11.774;2024-03-02T09:43:13;8.93;;;4.50;;
74158;SDS011;62511;47.970;11.774;2024-03-02T09:45:39;11.35;;;4.55;;
74158;SDS011;62511;47.970;11.774;2024-03-02T09:48:06;8.98;;;4.15;;
74158;SDS011;62511;47.970;11.774;2024-03-02T09:50:32;12.40;;;5.05;;
74158;SDS011;62511;47.970;11.774;2024-03-02T09:52:58;6.60;;;3.40;;
74158;SDS011;62511;47.970;11.774;2024-03-02T09:55:25;10.88;;;5.40;;
74158;SDS011;62511;47.970;11.774;2024-03-02T09:57:51;11.80;;;5.18;;
74158;SDS011;62511;47.970;11.774;2024-03-02T10:00:17;12.70;;;5.47;;
74158;SDS011;62511;47.970;11.774;2024-03-02T10:02:43;14.55;;;6.53;;
74158;SDS011;62511;47.970;11.774;2024-03-02T10:05:11;13.10;;;4.97;;
74158;SDS011;62511;47.970;11.774;2024-03-02T10:07:37;11.75;;;5.60;;
74158;SDS011;62511;47.970;11.774;2024-03-02T10:10:21;14.05;;;6.68;;
74158;SDS011;62511;47.970;11.774;2024-03-02T10:12:47;12.50;;;5.63;;
74158;SDS011;62511;47.970;11.774;2024-03-02T10:15:13;11.65;;;6.85;;
74158;SDS011;62511;47.970;11.774;2024-03-02T10:17:49;15.80;;;6.55;;
74158;SDS011;62511;47.970;11.774;2024-03-02T10:20:22;14.07;;;6.45;;
74158;SDS011;62511;47.970;11.774;2024-03-02T10:22:48;15.98;;;7.97;;
74158;SDS011;62511;47.970;11.774;2024-03-02T10:25:30;12.65;;;6.35;;
74158;SDS011;62511;47.970;11.774;2024-03-02T10:27:57;14.52;;;7.03;;
74158;SDS011;62511;47.970;11.774;2024-03-02T10:30:24;13.25;;;6.30;;
74158;SDS011;62511;47.970;11.774;2024-03-02T10:32:50;12.27;;;5.82;;
74158;SDS011;62511;47.970;11.774;2024-03-02T10:35:16;11.57;;;5.72;;
74158;SDS011;62511;47.970;11.774;2024-03-02T10:37:42;15.52;;;6.82;;
74158;SDS011;62511;47.970;11.774;2024-03-02T10:40:10;11.57;;;6.15;;
74158;SDS011;62511;47.970;11.774;2024-03-02T10:42:37;13.00;;;6.30;;
74158;SDS011;62511;47.970;11.774;2024-03-02T10:47:30;12.70;;;5.13;;
74158;SDS011;62511;47.970;11.774;2024-03-02T10:49:57;13.70;;;6.20;;
74158;SDS011;62511;47.970;11.774;2024-03-02T10:52:25;12.38;;;6.40;;
74158;SDS011;62511;47.970;11.774;2024-03-02T10:54:51;14.60;;;6.57;;
74158;SDS011;62511;47.970;11.774;2024-03-02T10:57:17;14.38;;;6.22;;
74158;SDS011;62511;47.970;11.774;2024-03-02T10:59:57;12.57;;;6.00;;
74158;SDS011;62511;47.970;11.774;2024-03-02T11:02:27;13.18;;;5.97;;
74158;SDS011;62511;47.970;11.774;2024-03-02T11:04:54;13.82;;;5.40;;
74158;SDS011;62511;47.970;11.774;2024-03-02T11:07:21;9.38;;;4.82;;
74158;SDS011;62511;47.970;11.774;2024-03-02T11:09:51;9.65;;;5.45;;
74158;SDS011;62511;47.970;11.774;2024-03-02T11:12:19;11.40;;;5.55;;
74158;SDS011;62511;47.970;11.774;2024-03-02T11:14:45;13.10;;;6.22;;
74158;SDS011;62511;47.970;11.774;2024-03-02T11:17:13;12.40;;;5.40;;
74158;SDS011;62511;47.970;11.774;2024-03-02T11:19:42;10.95;;;5.63;;
74158;SDS011;62511;47.970;11.774;2024-03-02T11:22:09;10.07;;;5.10;;
74158;SDS011;62511;47.970;11.774;2024-03-02T11:24:35;9.13;;;5.13;;
74158;SDS011;62511;47.970;11.774;2024-03-02T11:27:02;11.43;;;5.22;;
74158;SDS011;62511;47.970;11.774;2024-03-02T11:32:05;12.32;;;5.30;;
74158;SDS011;62511;47.970;11.774;2024-03-02T11:34:32;8.73;;;4.50;;
74158;SDS011;62511;47.970;11.774;2024-03-02T11:37:00;10.30;;;4.18;;
74158;SDS011;62511;47.970;11.774;2024-03-02T11:39:27;10.50;;;4.90;;
74158;SDS011;62511;47.970;11.774;2024-03-02T11:41:53;9.35;;;4.78;;
74158;SDS011;62511;47.970;11.774;2024-03-02T11:44:20;10.77;;;4.82;;
74158;SDS011;62511;47.970;11.774;2024-03-02T11:47:08;9.32;;;4.97;;
74158;SDS011;62511;47.970;11.774;2024-03-02T11:49:36;8.15;;;4.25;;
74158;SDS011;62511;47.970;11.774;2024-03-02T11:52:07;8.10;;;3.67;;
74158;SDS011;62511;47.970;11.774;2024-03-02T11:54:34;8.07;;;3.35;;
74158;SDS011;62511;47.970;11.774;2024-03-02T11:57:03;5.68;;;2.63;;
74158;SDS011;62511;47.970;11.774;2024-03-02T11:59:30;7.38;;;3.22;;
74158;SDS011;62511;47.970;11.774;2024-03-02T12:01:56;10.43;;;3.83;;
74158;SDS011;62511;47.970;11.774;2024-03-02T12:04:23;9.00;;;4.20;;
74158;SDS011;62511;47.970;11.774;2024-03-02T12:06:56;12.90;;;5.55;;
74158;SDS011;62511;47.970;11.774;2024-03-02T12:09:25;7.22;;;3.80;;
74158;SDS011;62511;47.970;11.774;2024-03-02T12:12:01;9.00;;;4.70;;
74158;SDS011;62511;47.970;11.774;2024-03-02T12:14:28;8.55;;;4.47;;
74158;SDS011;62511;47.970;11.774;2024-03-02T12:16:54;8.57;;;4.57;;
74158;SDS011;62511;47.970;11.774;2024-03-02T12:19:21;8.35;;;3.72;;
74158;SDS011;62511;47.970;11.774;2024-03-02T12:21:47;10.43;;;4.50;;
74158;SDS011;62511;47.970;11.774;2024-03-02T12:24:14;9.13;;;4.30;;
74158;SDS011;62511;47.970;11.774;2024-03-02T12:26:40;6.03;;;3.45;;
74158;SDS011;62511;47.970;11.774;2024-03-02T12:29:06;5.72;;;3.40;;
74158;SDS011;62511;47.970;11.774;2024-03-02T12:31:33;7.90;;;3.45;;
74158;SDS011;62511;47.970;11.774;2024-03-02T12:34:01;5.72;;;2.72;;
74158;SDS011;62511;47.970;11.774;2024-03-02T12:36:27;9.82;;;4.38;;
74158;SDS011;62511;47.970;11.774;2024-03-02T12:38:53;5.18;;;3.15;;
74158;SDS011;62511;47.970;11.774;2024-03-02T12:41:19;8.95;;;4.38;;
74158;SDS011;62511;47.970;11.774;2024-03-02T12:43:46;7.32;;;4.53;;
74158;SDS011;62511;47.970;11.774;2024-03-02T12:46:12;6.10;;;3.50;;
74158;SDS011;62511;47.970;11.774;2024-03-02T12:48:38;8.48;;;3.95;;
74158;SDS011;62511;47.970;11.774;2024-03-02T12:51:06;6.30;;;3.90;;
74158;SDS011;62511;47.970;11.774;2024-03-02T12:53:32;8.55;;;4.10;;
74158;SDS011;62511;47.970;11.774;2024-03-02T12:55:58;7.15;;;4.18;;
74158;SDS011;62511;47.970;11.774;2024-03-02T12:58:25;8.93;;;4.43;;
74158;SDS011;62511;47.970;11.774;2024-03-02T13:01:05;9.60;;;4.80;;
74158;SDS011;62511;47.970;11.774;2024-03-02T13:05:57;11.05;;;5.25;;
74158;SDS011;62511;47.970;11.774;2024-03-02T13:08:23;13.23;;;5.88;;
74158;SDS011;62511;47.970;11.774;2024-03-02T13:10:50;11.90;;;5.88;;
74158;SDS011;62511;47.970;11.774;2024-03-02T13:13:16;12.88;;;5.95;;
74158;SDS011;62511;47.970;11.774;2024-03-02T13:15:43;13.73;;;6.68;;
74158;SDS011;62511;47.970;11.774;2024-03-02T13:18:10;13.25;;;7.22;;
74158;SDS011;62511;47.970;11.774;2024-03-02T13:20:36;13.80;;;6.25;;
74158;SDS011;62511;47.970;11.774;2024-03-02T13:25:30;13.02;;;6.53;;
74158;SDS011;62511;47.970;11.774;2024-03-02T13:27:57;12.93;;;6.57;;
74158;SDS011;62511;47.970;11.774;2024-03-02T13:30:24;14.68;;;6.97;;
74158;SDS011;62511;47.970;11.774;2024-03-02T13:32:51;16.90;;;7.32;;
74158;SDS011;62511;47.970;11.774;2024-03-02T13:35:18;18.60;;;6.68;;
74158;SDS011;62511;47.970;11.774;2024-03-02T13:37:45;14.73;;;6.88;;
74158;SDS011;62511;47.970;11.774;2024-03-02T13:40:11;17.85;;;6.95;;
74158;SDS011;62511;47.970;11.774;2024-03-02T13:42:43;16.15;;;7.03;;
74158;SDS011;62511;47.970;11.774;2024-03-02T13:45:10;14.52;;;7.38;;
74158;SDS011;62511;47.970;11.774;2024-03-02T13:47:36;12.82;;;6.25;;
74158;SDS011;62511;47.970;11.774;2024-03-02T13:50:03;19.27;;;7.65;;
74158;SDS011;62511;47.970;11.774;2024-03-02T13:52:30;15.27;;;7.75;;
74158;SDS011;62511;47.970;11.774;2024-03-02T13:54:56;12.90;;;6.05;;
74158;SDS011;62511;47.970;11.774;2024-03-02T13:57:23;14.40;;;6.70;;
74158;SDS011;62511;47.970;11.774;2024-03-02T13:59:49;11.57;;;5.90;;
74158;SDS011;62511;47.970;11.774;2024-03-02T14:02:17;13.25;;;6.32;;
74158;SDS011;62511;47.970;11.774;2024-03-02T14:04:43;14.75;;;6.63;;
74158;SDS011;62511;47.970;11.774;2024-03-02T14:07:10;15.15;;;7.22;;
74158;SDS011;62511;47.970;11.774;2024-03-02T14:09:37;17.08;;;7.18;;
74158;SDS011;62511;47.970;11.774;2024-03-02T14:12:03;15.23;;;7.93;;
74158;SDS011;62511;47.970;11.774;2024-03-02T14:14:30;18.00;;;8.52;;
74158;SDS011;62511;47.970;11.774;2024-03-02T14:16:56;16.90;;;9.02;;
74158;SDS011;62511;47.970;11.774;2024-03-02T14:19:29;19.10;;;8.73;;
74158;SDS011;62511;47.970;11.774;2024-03-02T14:21:56;15.95;;;8.18;;
74158;SDS011;62511;47.970;11.774;2024-03-02T14:24:22;16.73;;;7.68;;
74158;SDS011;62511;47.970;11.774;2024-03-02T14:26:53;19.83;;;9.23;;
74158;SDS011;62511;47.970;11.774;2024-03-02T14:29:20;16.38;;;7.43;;
74158;SDS011;62511;47.970;11.774;2024-03-02T14:31:46;18.00;;;7.38;;
74158;SDS011;62511;47.970;11.774;2024-03-02T14:34:14;14.00;;;7.80;;